sensor_id;sensor_type;location;lat;lon;timestamp;P1;durP1;ratioP1;P2;durP2;ratioP2
51527;SDS011;37612;51.768;21.590;2023-04-24T00:03:17;7.60;;;5.50;;
51527;SDS011;37612;51.768;21.590;2023-04-24T00:07:22;9.90;;;5.30;;
51527;SDS011;37612;51.768;21.590;2023-04-24T00:11:24;10.20;;;5.60;;
51527;SDS011;37612;51.768;21.590;2023-04-24T00:15:26;10.20;;;6.30;;
51527;SDS011;37612;51.768;21.590;2023-04-24T00:19:28;7.30;;;5.80;;
51527;SDS011;37612;51.768;21.590;2023-04-24T00:23:31;9.20;;;5.90;;
51527;SDS011;37612;51.768;21.590;2023-04-24T00:27:33;8.90;;;6.20;;
51527;SDS011;37612;51.768;21.590;2023-04-24T00:31:37;8.70;;;5.90;;
51527;SDS011;37612;51.768;21.590;2023-04-24T00:35:42;10.20;;;5.70;;
51527;SDS011;37612;51.768;21.590;2023-04-24T00:39:44;8.10;;;6.20;;
51527;SDS011;37612;51.768;21.590;2023-04-24T00:43:46;13.10;;;7.10;;
51527;SDS011;37612;51.768;21.590;2023-04-24T00:47:48;8.90;;;6.40;;
51527;SDS011;37612;51.768;21.590;2023-04-24T00:51:51;9.50;;;6.20;;
51527;SDS011;37612;51.768;21.590;2023-04-24T00:55:53;10.00;;;6.30;;
51527;SDS011;37612;51.768;21.590;2023-04-24T00:59:55;11.50;;;7.70;;
51527;SDS011;37612;51.768;21.590;2023-04-24T01:03:58;26.90;;;15.50;;
51527;SDS011;37612;51.768;21.590;2023-04-24T01:08:00;17.90;;;11.00;;
51527;SDS011;37612;51.768;21.590;2023-04-24T01:12:03;25.40;;;14.30;;
51527;SDS011;37612;51.768;21.590;2023-04-24T01:16:05;25.10;;;16.40;;
51527;SDS011;37612;51.768;21.590;2023-04-24T01:20:07;16.40;;;8.80;;
51527;SDS011;37612;51.768;21.590;2023-04-24T01:28:12;9.50;;;7.20;;
51527;SDS011;37612;51.768;21.590;2023-04-24T01:32:15;13.50;;;7.70;;
51527;SDS011;37612;51.768;21.590;2023-04-24T01:36:18;13.40;;;7.80;;
51527;SDS011;37612;51.768;21.590;2023-04-24T01:40:21;12.10;;;8.60;;
51527;SDS011;37612;51.768;21.590;2023-04-24T01:44:23;11.60;;;7.00;;
51527;SDS011;37612;51.768;21.590;2023-04-24T01:48:26;12.90;;;7.60;;
51527;SDS011;37612;51.768;21.590;2023-04-24T01:52:28;12.30;;;6.90;;
51527;SDS011;37612;51.768;21.590;2023-04-24T01:56:35;10.70;;;7.00;;
51527;SDS011;37612;51.768;21.590;2023-04-24T02:00:41;13.00;;;7.40;;
51527;SDS011;37612;51.768;21.590;2023-04-24T02:04:43;9.20;;;6.80;;
51527;SDS011;37612;51.768;21.590;2023-04-24T02:08:46;9.90;;;7.20;;
51527;SDS011;37612;51.768;21.590;2023-04-24T02:12:48;9.80;;;7.10;;
51527;SDS011;37612;51.768;21.590;2023-04-24T02:16:50;11.10;;;7.50;;
51527;SDS011;37612;51.768;21.590;2023-04-24T02:20:52;10.20;;;7.30;;
51527;SDS011;37612;51.768;21.590;2023-04-24T02:24:54;10.00;;;6.50;;
51527;SDS011;37612;51.768;21.590;2023-04-24T02:28:57;12.30;;;7.20;;
51527;SDS011;37612;51.768;21.590;2023-04-24T02:32:59;11.00;;;7.30;;
51527;SDS011;37612;51.768;21.590;2023-04-24T02:37:01;9.30;;;6.90;;
51527;SDS011;37612;51.768;21.590;2023-04-24T02:41:03;10.90;;;7.40;;
51527;SDS011;37612;51.768;21.590;2023-04-24T02:45:07;10.80;;;7.30;;
51527;SDS011;37612;51.768;21.590;2023-04-24T02:53:13;9.40;;;6.40;;
51527;SDS011;37612;51.768;21.590;2023-04-24T02:57:15;9.60;;;6.60;;
51527;SDS011;37612;51.768;21.590;2023-04-24T03:01:17;12.00;;;7.40;;
51527;SDS011;37612;51.768;21.590;2023-04-24T03:05:20;12.60;;;6.80;;
51527;SDS011;37612;51.768;21.590;2023-04-24T03:13:24;9.80;;;6.50;;
51527;SDS011;37612;51.768;21.590;2023-04-24T03:17:26;12.60;;;8.40;;
51527;SDS011;37612;51.768;21.590;2023-04-24T03:21:28;9.70;;;8.00;;
51527;SDS011;37612;51.768;21.590;2023-04-24T03:25:30;13.30;;;7.60;;
51527;SDS011;37612;51.768;21.590;2023-04-24T03:29:32;13.40;;;10.40;;
51527;SDS011;37612;51.768;21.590;2023-04-24T03:34:11;9.50;;;6.60;;
51527;SDS011;37612;51.768;21.590;2023-04-24T03:38:15;13.10;;;8.20;;
51527;SDS011;37612;51.768;21.590;2023-04-24T03:42:17;15.20;;;10.20;;
51527;SDS011;37612;51.768;21.590;2023-04-24T03:46:20;25.90;;;15.30;;
51527;SDS011;37612;51.768;21.590;2023-04-24T03:50:33;13.30;;;9.40;;
51527;SDS011;37612;51.768;21.590;2023-04-24T03:54:35;11.50;;;7.30;;
51527;SDS011;37612;51.768;21.590;2023-04-24T03:58:37;15.90;;;8.60;;
51527;SDS011;37612;51.768;21.590;2023-04-24T04:02:39;9.80;;;7.30;;
51527;SDS011;37612;51.768;21.590;2023-04-24T04:06:41;11.50;;;6.10;;
51527;SDS011;37612;51.768;21.590;2023-04-24T04:10:45;14.40;;;7.30;;
51527;SDS011;37612;51.768;21.590;2023-04-24T04:14:47;9.80;;;6.00;;
51527;SDS011;37612;51.768;21.590;2023-04-24T04:18:49;11.90;;;6.90;;
51527;SDS011;37612;51.768;21.590;2023-04-24T04:22:52;8.30;;;5.90;;
51527;SDS011;37612;51.768;21.590;2023-04-24T04:26:54;11.00;;;6.30;;
51527;SDS011;37612;51.768;21.590;2023-04-24T04:30:58;8.60;;;6.70;;
51527;SDS011;37612;51.768;21.590;2023-04-24T04:39:06;10.90;;;6.60;;
51527;SDS011;37612;51.768;21.590;2023-04-24T04:43:50;10.70;;;7.10;;
51527;SDS011;37612;51.768;21.590;2023-04-24T04:47:54;13.20;;;6.80;;
51527;SDS011;37612;51.768;21.590;2023-04-24T04:52:20;10.30;;;6.50;;
51527;SDS011;37612;51.768;21.590;2023-04-24T04:56:27;8.10;;;6.20;;
51527;SDS011;37612;51.768;21.590;2023-04-24T05:04:37;9.50;;;6.40;;
51527;SDS011;37612;51.768;21.590;2023-04-24T05:08:40;9.70;;;7.10;;
51527;SDS011;37612;51.768;21.590;2023-04-24T05:12:43;8.70;;;6.40;;
51527;SDS011;37612;51.768;21.590;2023-04-24T05:16:46;12.20;;;7.10;;
51527;SDS011;37612;51.768;21.590;2023-04-24T05:20:49;10.20;;;6.90;;
51527;SDS011;37612;51.768;21.590;2023-04-24T05:25:04;11.70;;;6.30;;
51527;SDS011;37612;51.768;21.590;2023-04-24T05:29:09;10.70;;;7.10;;
51527;SDS011;37612;51.768;21.590;2023-04-24T05:33:40;11.60;;;6.40;;
51527;SDS011;37612;51.768;21.590;2023-04-24T05:37:42;11.00;;;6.80;;
51527;SDS011;37612;51.768;21.590;2023-04-24T05:42:06;8.30;;;6.40;;
51527;SDS011;37612;51.768;21.590;2023-04-24T05:46:11;9.50;;;7.00;;
51527;SDS011;37612;51.768;21.590;2023-04-24T05:50:13;9.50;;;6.30;;
51527;SDS011;37612;51.768;21.590;2023-04-24T05:54:19;9.90;;;7.00;;
51527;SDS011;37612;51.768;21.590;2023-04-24T05:58:32;8.50;;;6.10;;
51527;SDS011;37612;51.768;21.590;2023-04-24T06:02:35;10.10;;;7.00;;
51527;SDS011;37612;51.768;21.590;2023-04-24T06:10:39;9.10;;;5.90;;
51527;SDS011;37612;51.768;21.590;2023-04-24T06:14:46;10.30;;;6.50;;
51527;SDS011;37612;51.768;21.590;2023-04-24T06:18:49;13.50;;;6.00;;
51527;SDS011;37612;51.768;21.590;2023-04-24T06:22:53;9.50;;;6.20;;
51527;SDS011;37612;51.768;21.590;2023-04-24T06:31:00;11.10;;;6.30;;
51527;SDS011;37612;51.768;21.590;2023-04-24T06:35:04;16.20;;;6.20;;
51527;SDS011;37612;51.768;21.590;2023-04-24T06:39:08;9.70;;;6.20;;
51527;SDS011;37612;51.768;21.590;2023-04-24T06:43:13;9.50;;;5.40;;
51527;SDS011;37612;51.768;21.590;2023-04-24T06:47:17;13.40;;;6.20;;
51527;SDS011;37612;51.768;21.590;2023-04-24T06:51:24;9.40;;;6.30;;
51527;SDS011;37612;51.768;21.590;2023-04-24T06:55:28;13.10;;;6.40;;
51527;SDS011;37612;51.768;21.590;2023-04-24T06:59:32;9.20;;;6.30;;
51527;SDS011;37612;51.768;21.590;2023-04-24T07:03:40;9.40;;;5.50;;
51527;SDS011;37612;51.768;21.590;2023-04-24T07:07:43;9.60;;;5.60;;
51527;SDS011;37612;51.768;21.590;2023-04-24T07:11:46;8.10;;;5.80;;
51527;SDS011;37612;51.768;21.590;2023-04-24T07:15:48;10.60;;;5.80;;
51527;SDS011;37612;51.768;21.590;2023-04-24T07:19:52;9.20;;;6.00;;
51527;SDS011;37612;51.768;21.590;2023-04-24T07:23:54;8.10;;;5.80;;
51527;SDS011;37612;51.768;21.590;2023-04-24T07:27:57;10.80;;;6.50;;
51527;SDS011;37612;51.768;21.590;2023-04-24T07:32:00;7.90;;;6.30;;
51527;SDS011;37612;51.768;21.590;2023-04-24T07:36:02;10.90;;;7.20;;
51527;SDS011;37612;51.768;21.590;2023-04-24T07:40:05;8.90;;;5.90;;
51527;SDS011;37612;51.768;21.590;2023-04-24T07:44:09;7.50;;;5.90;;
51527;SDS011;37612;51.768;21.590;2023-04-24T07:48:13;9.70;;;6.40;;
51527;SDS011;37612;51.768;21.590;2023-04-24T07:52:18;9.10;;;6.30;;
51527;SDS011;37612;51.768;21.590;2023-04-24T07:56:20;8.10;;;5.50;;
51527;SDS011;37612;51.768;21.590;2023-04-24T08:00:23;7.20;;;5.40;;
51527;SDS011;37612;51.768;21.590;2023-04-24T08:04:26;6.70;;;5.60;;
51527;SDS011;37612;51.768;21.590;2023-04-24T08:08:29;6.60;;;5.00;;
51527;SDS011;37612;51.768;21.590;2023-04-24T08:12:39;20.00;;;5.90;;
51527;SDS011;37612;51.768;21.590;2023-04-24T08:16:42;6.30;;;5.20;;
51527;SDS011;37612;51.768;21.590;2023-04-24T08:20:44;7.30;;;5.40;;
51527;SDS011;37612;51.768;21.590;2023-04-24T08:24:47;8.20;;;5.10;;
51527;SDS011;37612;51.768;21.590;2023-04-24T08:28:49;6.30;;;4.70;;
51527;SDS011;37612;51.768;21.590;2023-04-24T08:32:51;6.60;;;5.10;;
51527;SDS011;37612;51.768;21.590;2023-04-24T08:36:54;6.40;;;4.60;;
51527;SDS011;37612;51.768;21.590;2023-04-24T08:40:57;6.80;;;5.00;;
51527;SDS011;37612;51.768;21.590;2023-04-24T08:45:00;7.40;;;4.50;;
51527;SDS011;37612;51.768;21.590;2023-04-24T08:49:04;6.60;;;4.40;;
51527;SDS011;37612;51.768;21.590;2023-04-24T08:53:07;5.60;;;4.80;;
51527;SDS011;37612;51.768;21.590;2023-04-24T08:57:09;9.40;;;5.10;;
51527;SDS011;37612;51.768;21.590;2023-04-24T09:01:15;8.70;;;4.00;;
51527;SDS011;37612;51.768;21.590;2023-04-24T09:05:20;6.80;;;4.40;;
51527;SDS011;37612;51.768;21.590;2023-04-24T09:09:25;6.70;;;4.70;;
51527;SDS011;37612;51.768;21.590;2023-04-24T09:13:31;5.80;;;4.60;;
51527;SDS011;37612;51.768;21.590;2023-04-24T09:17:35;6.20;;;4.60;;
51527;SDS011;37612;51.768;21.590;2023-04-24T09:21:38;8.60;;;4.40;;
51527;SDS011;37612;51.768;21.590;2023-04-24T09:25:40;5.80;;;4.50;;
51527;SDS011;37612;51.768;21.590;2023-04-24T09:30:17;6.10;;;4.50;;
51527;SDS011;37612;51.768;21.590;2023-04-24T09:34:12;8.90;;;4.80;;
51527;SDS011;37612;51.768;21.590;2023-04-24T09:38:15;12.50;;;4.70;;
51527;SDS011;37612;51.768;21.590;2023-04-24T09:42:17;7.20;;;3.80;;
51527;SDS011;37612;51.768;21.590;2023-04-24T09:46:19;6.30;;;4.30;;
51527;SDS011;37612;51.768;21.590;2023-04-24T09:50:23;7.90;;;5.00;;
51527;SDS011;37612;51.768;21.590;2023-04-24T09:54:25;7.40;;;5.00;;
51527;SDS011;37612;51.768;21.590;2023-04-24T09:58:28;5.50;;;4.30;;
51527;SDS011;37612;51.768;21.590;2023-04-24T10:02:34;8.40;;;5.60;;
51527;SDS011;37612;51.768;21.590;2023-04-24T10:06:37;13.50;;;5.40;;
51527;SDS011;37612;51.768;21.590;2023-04-24T10:10:40;7.00;;;5.70;;
51527;SDS011;37612;51.768;21.590;2023-04-24T10:14:45;6.80;;;4.90;;
51527;SDS011;37612;51.768;21.590;2023-04-24T10:18:48;7.10;;;5.20;;
51527;SDS011;37612;51.768;21.590;2023-04-24T10:22:53;10.80;;;4.80;;
51527;SDS011;37612;51.768;21.590;2023-04-24T10:26:55;9.90;;;5.40;;
51527;SDS011;37612;51.768;21.590;2023-04-24T10:30:59;7.20;;;4.70;;
51527;SDS011;37612;51.768;21.590;2023-04-24T10:35:03;9.60;;;5.90;;
51527;SDS011;37612;51.768;21.590;2023-04-24T10:39:10;11.30;;;4.60;;
51527;SDS011;37612;51.768;21.590;2023-04-24T10:43:16;8.80;;;5.20;;
51527;SDS011;37612;51.768;21.590;2023-04-24T10:47:20;11.30;;;5.00;;
51527;SDS011;37612;51.768;21.590;2023-04-24T10:51:23;7.80;;;5.10;;
51527;SDS011;37612;51.768;21.590;2023-04-24T10:55:48;5.40;;;4.60;;
51527;SDS011;37612;51.768;21.590;2023-04-24T10:59:51;7.00;;;4.90;;
51527;SDS011;37612;51.768;21.590;2023-04-24T11:04:13;7.40;;;4.40;;
51527;SDS011;37612;51.768;21.590;2023-04-24T11:08:38;7.70;;;4.80;;
51527;SDS011;37612;51.768;21.590;2023-04-24T11:12:45;8.90;;;4.60;;
51527;SDS011;37612;51.768;21.590;2023-04-24T11:16:54;8.70;;;5.00;;
51527;SDS011;37612;51.768;21.590;2023-04-24T11:20:56;9.30;;;4.30;;
51527;SDS011;37612;51.768;21.590;2023-04-24T11:25:01;6.80;;;3.80;;
51527;SDS011;37612;51.768;21.590;2023-04-24T11:29:06;4.90;;;3.60;;
51527;SDS011;37612;51.768;21.590;2023-04-24T11:33:10;9.30;;;4.20;;
51527;SDS011;37612;51.768;21.590;2023-04-24T11:37:12;5.90;;;3.80;;
51527;SDS011;37612;51.768;21.590;2023-04-24T11:41:15;6.10;;;4.00;;
51527;SDS011;37612;51.768;21.590;2023-04-24T11:45:18;5.80;;;3.70;;
51527;SDS011;37612;51.768;21.590;2023-04-24T11:49:23;5.10;;;3.60;;
51527;SDS011;37612;51.768;21.590;2023-04-24T11:53:26;4.30;;;3.50;;
51527;SDS011;37612;51.768;21.590;2023-04-24T11:57:28;4.10;;;3.50;;
51527;SDS011;37612;51.768;21.590;2023-04-24T12:01:44;4.60;;;3.00;;
51527;SDS011;37612;51.768;21.590;2023-04-24T12:05:47;7.80;;;3.40;;
51527;SDS011;37612;51.768;21.590;2023-04-24T12:14:10;7.90;;;3.10;;
51527;SDS011;37612;51.768;21.590;2023-04-24T12:18:14;3.90;;;3.30;;
51527;SDS011;37612;51.768;21.590;2023-04-24T12:22:18;5.70;;;3.00;;
51527;SDS011;37612;51.768;21.590;2023-04-24T12:26:21;4.50;;;3.00;;
51527;SDS011;37612;51.768;21.590;2023-04-24T12:30:26;4.10;;;2.90;;
51527;SDS011;37612;51.768;21.590;2023-04-24T12:34:32;8.30;;;3.20;;
51527;SDS011;37612;51.768;21.590;2023-04-24T12:38:34;3.10;;;2.80;;
51527;SDS011;37612;51.768;21.590;2023-04-24T12:42:46;4.70;;;3.10;;
51527;SDS011;37612;51.768;21.590;2023-04-24T12:46:49;6.60;;;2.90;;
51527;SDS011;37612;51.768;21.590;2023-04-24T12:50:52;3.80;;;3.00;;
51527;SDS011;37612;51.768;21.590;2023-04-24T12:54:55;6.00;;;3.20;;
51527;SDS011;37612;51.768;21.590;2023-04-24T12:59:00;4.10;;;3.10;;
51527;SDS011;37612;51.768;21.590;2023-04-24T13:03:02;3.90;;;2.60;;
51527;SDS011;37612;51.768;21.590;2023-04-24T13:07:05;3.10;;;2.60;;
51527;SDS011;37612;51.768;21.590;2023-04-24T13:11:07;4.50;;;2.80;;
51527;SDS011;37612;51.768;21.590;2023-04-24T13:15:09;4.60;;;2.80;;
51527;SDS011;37612;51.768;21.590;2023-04-24T13:19:11;4.80;;;2.90;;
51527;SDS011;37612;51.768;21.590;2023-04-24T13:23:14;3.80;;;2.60;;
51527;SDS011;37612;51.768;21.590;2023-04-24T13:27:17;5.30;;;2.80;;
51527;SDS011;37612;51.768;21.590;2023-04-24T13:31:20;4.90;;;2.50;;
51527;SDS011;37612;51.768;21.590;2023-04-24T13:35:22;2.70;;;2.20;;
51527;SDS011;37612;51.768;21.590;2023-04-24T13:39:24;4.30;;;2.50;;
51527;SDS011;37612;51.768;21.590;2023-04-24T13:43:27;6.60;;;2.50;;
51527;SDS011;37612;51.768;21.590;2023-04-24T13:47:30;2.50;;;2.00;;
51527;SDS011;37612;51.768;21.590;2023-04-24T13:51:32;4.50;;;2.70;;
51527;SDS011;37612;51.768;21.590;2023-04-24T13:55:34;3.90;;;2.70;;
51527;SDS011;37612;51.768;21.590;2023-04-24T13:59:36;4.20;;;2.80;;
51527;SDS011;37612;51.768;21.590;2023-04-24T14:03:38;4.90;;;2.90;;
51527;SDS011;37612;51.768;21.590;2023-04-24T14:08:01;4.80;;;2.60;;
51527;SDS011;37612;51.768;21.590;2023-04-24T14:12:03;3.90;;;2.50;;
51527;SDS011;37612;51.768;21.590;2023-04-24T14:16:06;4.20;;;2.40;;
51527;SDS011;37612;51.768;21.590;2023-04-24T14:20:08;6.10;;;2.40;;
51527;SDS011;37612;51.768;21.590;2023-04-24T14:24:10;6.80;;;2.70;;
51527;SDS011;37612;51.768;21.590;2023-04-24T14:28:12;5.20;;;2.60;;
51527;SDS011;37612;51.768;21.590;2023-04-24T14:32:14;3.10;;;2.30;;
51527;SDS011;37612;51.768;21.590;2023-04-24T14:36:18;5.70;;;2.40;;
51527;SDS011;37612;51.768;21.590;2023-04-24T14:40:20;3.10;;;2.50;;
51527;SDS011;37612;51.768;21.590;2023-04-24T14:44:23;5.40;;;2.50;;
51527;SDS011;37612;51.768;21.590;2023-04-24T14:48:26;6.30;;;2.50;;
51527;SDS011;37612;51.768;21.590;2023-04-24T14:52:42;4.20;;;2.40;;
51527;SDS011;37612;51.768;21.590;2023-04-24T14:56:44;4.70;;;2.50;;
51527;SDS011;37612;51.768;21.590;2023-04-24T15:00:48;16.50;;;3.30;;
51527;SDS011;37612;51.768;21.590;2023-04-24T15:05:07;5.20;;;2.80;;
51527;SDS011;37612;51.768;21.590;2023-04-24T15:09:09;7.70;;;2.50;;
51527;SDS011;37612;51.768;21.590;2023-04-24T15:13:14;3.50;;;2.60;;
51527;SDS011;37612;51.768;21.590;2023-04-24T15:17:17;19.40;;;3.80;;
51527;SDS011;37612;51.768;21.590;2023-04-24T15:21:19;8.00;;;2.50;;
51527;SDS011;37612;51.768;21.590;2023-04-24T15:25:22;3.60;;;2.20;;
51527;SDS011;37612;51.768;21.590;2023-04-24T15:29:24;3.90;;;2.50;;
51527;SDS011;37612;51.768;21.590;2023-04-24T15:33:27;4.00;;;2.60;;
51527;SDS011;37612;51.768;21.590;2023-04-24T15:37:30;4.90;;;2.30;;
51527;SDS011;37612;51.768;21.590;2023-04-24T15:41:32;3.60;;;2.10;;
51527;SDS011;37612;51.768;21.590;2023-04-24T15:45:34;4.20;;;2.30;;
51527;SDS011;37612;51.768;21.590;2023-04-24T15:49:36;5.60;;;2.40;;
51527;SDS011;37612;51.768;21.590;2023-04-24T15:53:40;7.20;;;2.50;;
51527;SDS011;37612;51.768;21.590;2023-04-24T15:57:44;4.10;;;2.40;;
51527;SDS011;37612;51.768;21.590;2023-04-24T16:01:46;5.00;;;2.30;;
51527;SDS011;37612;51.768;21.590;2023-04-24T16:05:48;2.70;;;2.20;;
51527;SDS011;37612;51.768;21.590;2023-04-24T16:09:51;3.10;;;2.40;;
51527;SDS011;37612;51.768;21.590;2023-04-24T16:13:53;4.40;;;2.30;;
51527;SDS011;37612;51.768;21.590;2023-04-24T16:17:56;5.20;;;3.30;;
51527;SDS011;37612;51.768;21.590;2023-04-24T16:21:58;6.30;;;2.30;;
51527;SDS011;37612;51.768;21.590;2023-04-24T16:26:01;6.50;;;3.20;;
51527;SDS011;37612;51.768;21.590;2023-04-24T16:30:03;4.90;;;3.80;;
51527;SDS011;37612;51.768;21.590;2023-04-24T16:34:06;5.70;;;4.60;;
51527;SDS011;37612;51.768;21.590;2023-04-24T16:38:08;7.10;;;4.00;;
51527;SDS011;37612;51.768;21.590;2023-04-24T16:42:10;3.70;;;2.90;;
51527;SDS011;37612;51.768;21.590;2023-04-24T16:46:15;6.60;;;3.30;;
51527;SDS011;37612;51.768;21.590;2023-04-24T16:50:17;7.60;;;3.10;;
51527;SDS011;37612;51.768;21.590;2023-04-24T16:54:19;6.50;;;3.30;;
51527;SDS011;37612;51.768;21.590;2023-04-24T16:58:22;5.50;;;3.20;;
51527;SDS011;37612;51.768;21.590;2023-04-24T17:02:24;7.40;;;3.90;;
51527;SDS011;37612;51.768;21.590;2023-04-24T17:06:26;4.70;;;3.10;;
51527;SDS011;37612;51.768;21.590;2023-04-24T17:10:28;4.70;;;3.10;;
51527;SDS011;37612;51.768;21.590;2023-04-24T17:14:30;5.10;;;3.60;;
51527;SDS011;37612;51.768;21.590;2023-04-24T17:18:32;5.20;;;3.50;;
51527;SDS011;37612;51.768;21.590;2023-04-24T17:22:34;4.30;;;3.30;;
51527;SDS011;37612;51.768;21.590;2023-04-24T17:30:38;5.60;;;3.40;;
51527;SDS011;37612;51.768;21.590;2023-04-24T17:34:40;8.20;;;3.80;;
51527;SDS011;37612;51.768;21.590;2023-04-24T17:38:42;6.90;;;3.50;;
51527;SDS011;37612;51.768;21.590;2023-04-24T17:42:44;7.90;;;4.10;;
51527;SDS011;37612;51.768;21.590;2023-04-24T17:50:48;4.20;;;3.40;;
51527;SDS011;37612;51.768;21.590;2023-04-24T17:58:57;5.30;;;4.50;;
51527;SDS011;37612;51.768;21.590;2023-04-24T18:03:03;9.00;;;4.20;;
51527;SDS011;37612;51.768;21.590;2023-04-24T18:07:06;7.50;;;4.40;;
51527;SDS011;37612;51.768;21.590;2023-04-24T18:11:08;7.80;;;5.10;;
51527;SDS011;37612;51.768;21.590;2023-04-24T18:15:11;10.70;;;6.40;;
51527;SDS011;37612;51.768;21.590;2023-04-24T18:19:13;11.40;;;5.90;;
51527;SDS011;37612;51.768;21.590;2023-04-24T18:23:15;9.30;;;6.40;;
51527;SDS011;37612;51.768;21.590;2023-04-24T18:27:21;11.80;;;6.60;;
51527;SDS011;37612;51.768;21.590;2023-04-24T18:31:27;9.50;;;5.70;;
51527;SDS011;37612;51.768;21.590;2023-04-24T18:35:37;8.00;;;4.50;;
51527;SDS011;37612;51.768;21.590;2023-04-24T18:39:39;8.60;;;5.10;;
51527;SDS011;37612;51.768;21.590;2023-04-24T18:47:46;7.60;;;4.40;;
51527;SDS011;37612;51.768;21.590;2023-04-24T18:51:51;6.20;;;4.70;;
51527;SDS011;37612;51.768;21.590;2023-04-24T18:55:55;7.60;;;4.20;;
51527;SDS011;37612;51.768;21.590;2023-04-24T18:59:57;9.50;;;4.70;;
51527;SDS011;37612;51.768;21.590;2023-04-24T19:04:03;6.30;;;4.60;;
51527;SDS011;37612;51.768;21.590;2023-04-24T19:08:17;8.30;;;4.90;;
51527;SDS011;37612;51.768;21.590;2023-04-24T19:12:22;9.30;;;5.30;;
51527;SDS011;37612;51.768;21.590;2023-04-24T19:16:34;8.70;;;4.80;;
51527;SDS011;37612;51.768;21.590;2023-04-24T19:20:47;7.60;;;5.20;;
51527;SDS011;37612;51.768;21.590;2023-04-24T19:24:51;6.70;;;4.90;;
51527;SDS011;37612;51.768;21.590;2023-04-24T19:28:54;7.40;;;5.00;;
51527;SDS011;37612;51.768;21.590;2023-04-24T19:33:00;7.10;;;4.90;;
51527;SDS011;37612;51.768;21.590;2023-04-24T19:37:04;8.00;;;4.50;;
51527;SDS011;37612;51.768;21.590;2023-04-24T19:41:06;7.60;;;4.70;;
51527;SDS011;37612;51.768;21.590;2023-04-24T19:45:09;6.90;;;4.80;;
51527;SDS011;37612;51.768;21.590;2023-04-24T19:49:14;13.30;;;6.90;;
51527;SDS011;37612;51.768;21.590;2023-04-24T19:53:24;7.60;;;4.80;;
51527;SDS011;37612;51.768;21.590;2023-04-24T19:57:27;7.10;;;4.80;;
51527;SDS011;37612;51.768;21.590;2023-04-24T20:01:30;10.10;;;5.40;;
51527;SDS011;37612;51.768;21.590;2023-04-24T20:05:34;11.30;;;5.70;;
51527;SDS011;37612;51.768;21.590;2023-04-24T20:09:36;10.10;;;5.00;;
51527;SDS011;37612;51.768;21.590;2023-04-24T20:13:38;9.10;;;4.60;;
51527;SDS011;37612;51.768;21.590;2023-04-24T20:17:43;5.90;;;4.90;;
51527;SDS011;37612;51.768;21.590;2023-04-24T20:21:46;7.60;;;5.30;;
51527;SDS011;37612;51.768;21.590;2023-04-24T20:25:51;9.00;;;5.40;;
51527;SDS011;37612;51.768;21.590;2023-04-24T20:30:01;8.20;;;5.90;;
51527;SDS011;37612;51.768;21.590;2023-04-24T20:34:14;9.20;;;5.80;;
51527;SDS011;37612;51.768;21.590;2023-04-24T20:38:18;9.40;;;6.10;;
51527;SDS011;37612;51.768;21.590;2023-04-24T20:42:21;6.70;;;5.50;;
51527;SDS011;37612;51.768;21.590;2023-04-24T20:46:24;6.90;;;5.50;;
51527;SDS011;37612;51.768;21.590;2023-04-24T20:50:36;10.90;;;6.00;;
51527;SDS011;37612;51.768;21.590;2023-04-24T20:55:07;13.30;;;6.60;;
51527;SDS011;37612;51.768;21.590;2023-04-24T20:59:10;12.00;;;6.40;;
51527;SDS011;37612;51.768;21.590;2023-04-24T21:03:26;12.50;;;7.20;;
51527;SDS011;37612;51.768;21.590;2023-04-24T21:07:53;12.50;;;7.20;;
51527;SDS011;37612;51.768;21.590;2023-04-24T21:11:58;15.00;;;6.90;;
51527;SDS011;37612;51.768;21.590;2023-04-24T21:20:55;9.80;;;7.20;;
51527;SDS011;37612;51.768;21.590;2023-04-24T21:25:21;11.50;;;7.20;;
51527;SDS011;37612;51.768;21.590;2023-04-24T21:29:45;10.60;;;7.60;;
51527;SDS011;37612;51.768;21.590;2023-04-24T21:33:53;9.00;;;6.60;;
51527;SDS011;37612;51.768;21.590;2023-04-24T21:37:55;10.50;;;7.80;;
51527;SDS011;37612;51.768;21.590;2023-04-24T21:42:03;11.50;;;7.90;;
51527;SDS011;37612;51.768;21.590;2023-04-24T21:46:08;10.50;;;7.00;;
51527;SDS011;37612;51.768;21.590;2023-04-24T21:50:12;12.70;;;8.50;;
51527;SDS011;37612;51.768;21.590;2023-04-24T21:54:19;10.00;;;7.50;;
51527;SDS011;37612;51.768;21.590;2023-04-24T21:58:21;11.90;;;7.50;;
51527;SDS011;37612;51.768;21.590;2023-04-24T22:02:25;13.10;;;7.80;;
51527;SDS011;37612;51.768;21.590;2023-04-24T22:06:31;12.20;;;7.60;;
51527;SDS011;37612;51.768;21.590;2023-04-24T22:10:36;10.80;;;7.40;;
51527;SDS011;37612;51.768;21.590;2023-04-24T22:18:40;10.50;;;7.30;;
51527;SDS011;37612;51.768;21.590;2023-04-24T22:22:43;12.00;;;8.00;;
51527;SDS011;37612;51.768;21.590;2023-04-24T22:26:45;11.30;;;7.10;;
51527;SDS011;37612;51.768;21.590;2023-04-24T22:30:48;11.40;;;6.00;;
51527;SDS011;37612;51.768;21.590;2023-04-24T22:34:50;12.00;;;7.40;;
51527;SDS011;37612;51.768;21.590;2023-04-24T22:38:53;9.60;;;7.70;;
51527;SDS011;37612;51.768;21.590;2023-04-24T22:43:18;10.80;;;7.90;;
51527;SDS011;37612;51.768;21.590;2023-04-24T22:47:20;15.00;;;7.50;;
51527;SDS011;37612;51.768;21.590;2023-04-24T22:51:24;12.70;;;7.80;;
51527;SDS011;37612;51.768;21.590;2023-04-24T22:55:39;13.50;;;9.10;;
51527;SDS011;37612;51.768;21.590;2023-04-24T22:59:41;10.10;;;7.60;;
51527;SDS011;37612;51.768;21.590;2023-04-24T23:04:03;11.40;;;7.80;;
51527;SDS011;37612;51.768;21.590;2023-04-24T23:08:05;16.40;;;9.40;;
51527;SDS011;37612;51.768;21.590;2023-04-24T23:12:07;13.90;;;9.00;;
51527;SDS011;37612;51.768;21.590;2023-04-24T23:16:09;15.70;;;9.10;;
51527;SDS011;37612;51.768;21.590;2023-04-24T23:20:14;11.40;;;7.80;;
51527;SDS011;37612;51.768;21.590;2023-04-24T23:24:16;13.30;;;7.30;;
51527;SDS011;37612;51.768;21.590;2023-04-24T23:28:19;12.50;;;8.20;;
51527;SDS011;37612;51.768;21.590;2023-04-24T23:32:21;9.10;;;8.10;;
51527;SDS011;37612;51.768;21.590;2023-04-24T23:36:26;10.40;;;8.50;;
51527;SDS011;37612;51.768;21.590;2023-04-24T23:40:28;10.00;;;8.30;;
51527;SDS011;37612;51.768;21.590;2023-04-24T23:48:33;7.10;;;6.20;;
51527;SDS011;37612;51.768;21.590;2023-04-24T23:52:35;9.00;;;7.60;;
51527;SDS011;37612;51.768;21.590;2023-04-24T23:56:37;9.40;;;7.40;;
